createdAt,value
2018-11-05T00:00:27.245Z,96.20
2018-11-05T00:02:56.254Z,96.20
2018-11-05T00:05:25.183Z,96.40
2018-11-05T00:07:54.178Z,96.40
2018-11-05T00:10:23.211Z,96.30
2018-11-05T00:12:53.170Z,96.20
2018-11-05T00:15:22.093Z,96.10
2018-11-05T00:17:50.975Z,95.90
2018-11-05T00:20:19.918Z,95.80
2018-11-05T00:22:48.807Z,95.80
2018-11-05T00:25:17.769Z,95.90
2018-11-05T00:27:46.918Z,96.00
2018-11-05T00:30:17.065Z,96.00
2018-11-05T00:32:46.240Z,95.80
2018-11-05T00:35:15.636Z,96.00
2018-11-05T00:37:44.483Z,95.80
2018-11-05T00:40:14.463Z,95.80
2018-11-05T00:42:43.976Z,95.70
2018-11-05T00:45:13.266Z,96.10
2018-11-05T00:47:43.000Z,96.00
2018-11-05T00:50:13.484Z,95.70
2018-11-05T00:52:42.388Z,95.70
2018-11-05T00:55:12.105Z,95.80
2018-11-05T00:57:41.004Z,95.70
2018-11-05T01:00:11.456Z,95.80
2018-11-05T01:02:41.015Z,95.70
2018-11-05T01:05:11.565Z,95.60
2018-11-05T01:07:40.952Z,95.70
2018-11-05T01:10:10.978Z,95.60
2018-11-05T01:12:40.981Z,95.60
2018-11-05T01:15:12.193Z,95.60
2018-11-05T01:17:41.112Z,95.60
2018-11-05T01:20:11.675Z,95.80
2018-11-05T01:22:40.519Z,95.80
2018-11-05T01:25:09.461Z,95.90
2018-11-05T01:27:39.998Z,95.80
2018-11-05T01:30:13.596Z,95.70
2018-11-05T01:32:42.487Z,95.80
2018-11-05T01:35:12.584Z,95.80
2018-11-05T01:37:41.689Z,95.80
2018-11-05T01:40:13.006Z,95.80
2018-11-05T01:42:43.366Z,95.80
2018-11-05T01:45:13.393Z,95.80
2018-11-05T01:47:42.898Z,96.00
2018-11-05T01:50:13.581Z,96.00
2018-11-05T01:52:43.942Z,96.00
2018-11-05T01:55:13.011Z,96.10
2018-11-05T01:57:42.105Z,95.90
2018-11-05T02:00:13.767Z,96.00
2018-11-05T02:02:43.068Z,96.00
2018-11-05T02:05:12.219Z,96.00
2018-11-05T02:07:42.294Z,96.10
2018-11-05T02:10:16.060Z,96.10
2018-11-05T02:12:44.884Z,95.90
2018-11-05T02:15:14.233Z,95.90
2018-11-05T02:17:44.467Z,95.80
2018-11-05T02:20:14.306Z,95.80
2018-11-05T02:22:43.189Z,95.90
2018-11-05T02:25:12.810Z,96.10
2018-11-05T02:27:41.868Z,96.10
2018-11-05T02:30:13.008Z,96.10
2018-11-05T02:32:41.883Z,96.10
2018-11-05T02:35:12.374Z,96.10
2018-11-05T02:37:43.543Z,96.00
2018-11-05T02:40:14.872Z,96.00
2018-11-05T02:42:44.323Z,96.10
2018-11-05T02:45:14.488Z,96.10
2018-11-05T02:47:43.468Z,96.20
2018-11-05T02:50:13.140Z,96.10
2018-11-05T02:52:43.023Z,96.00
2018-11-05T02:55:11.992Z,96.00
2018-11-05T02:57:40.889Z,96.10
2018-11-05T03:00:13.281Z,96.40
2018-11-05T03:02:42.582Z,96.30
2018-11-05T03:05:15.878Z,96.10
2018-11-05T03:07:45.379Z,96.30
2018-11-05T03:10:15.677Z,96.20
2018-11-05T03:12:45.388Z,96.10
2018-11-05T03:15:15.500Z,96.00
2018-11-05T03:17:44.404Z,96.00
2018-11-05T03:20:14.143Z,96.00
2018-11-05T03:22:43.609Z,96.00
2018-11-05T03:25:12.510Z,96.10
2018-11-05T03:27:41.804Z,96.10
2018-11-05T03:30:15.632Z,96.10
2018-11-05T03:32:44.500Z,96.10
2018-11-05T03:35:14.005Z,96.10
2018-11-05T03:37:43.712Z,96.00
2018-11-05T03:40:13.103Z,96.30
2018-11-05T03:42:42.528Z,96.80
2018-11-05T03:45:12.933Z,96.70
2018-11-05T03:47:41.823Z,96.60
2018-11-05T03:50:12.660Z,96.60
2018-11-05T03:52:41.873Z,96.50
2018-11-05T03:55:10.693Z,96.40
2018-11-05T03:57:39.541Z,96.30
2018-11-05T04:00:09.878Z,96.30
2018-11-05T04:02:38.761Z,96.30
2018-11-05T04:05:07.797Z,96.40
2018-11-05T04:07:36.973Z,96.50
2018-11-05T04:10:06.803Z,96.30
2018-11-05T04:12:35.877Z,96.30
2018-11-05T04:15:04.812Z,96.20
2018-11-05T04:17:33.764Z,96.30
2018-11-05T04:20:02.628Z,96.10
2018-11-05T04:22:31.488Z,96.20
2018-11-05T04:25:00.400Z,96.20
2018-11-05T04:27:29.294Z,96.20
2018-11-05T04:29:58.093Z,96.30
2018-11-05T04:32:26.949Z,96.60
2018-11-05T04:34:55.818Z,96.70
2018-11-05T04:37:24.808Z,96.80
2018-11-05T04:39:53.756Z,96.70
2018-11-05T04:42:22.656Z,96.50
2018-11-05T04:44:51.613Z,96.50
2018-11-05T04:47:20.496Z,96.50
2018-11-05T04:49:49.361Z,96.50
2018-11-05T04:52:18.220Z,96.50
2018-11-05T04:54:47.091Z,96.50
2018-11-05T04:57:15.955Z,96.60
2018-11-05T04:59:44.821Z,96.60
2018-11-05T05:02:13.722Z,96.60
2018-11-05T05:04:42.960Z,96.60
2018-11-05T05:07:11.836Z,96.70
2018-11-05T05:09:40.681Z,96.70
2018-11-05T05:12:09.530Z,96.50
2018-11-05T05:14:38.392Z,96.60
2018-11-05T05:17:07.338Z,96.70
2018-11-05T05:19:36.221Z,96.80
2018-11-05T05:22:05.308Z,96.70
2018-11-05T05:24:34.160Z,96.50
2018-11-05T05:27:03.770Z,96.40
2018-11-05T05:29:32.661Z,96.50
2018-11-05T05:32:01.571Z,96.70
2018-11-05T05:34:30.427Z,96.60
2018-11-05T05:36:59.342Z,96.80
2018-11-05T05:39:28.294Z,96.90
2018-11-05T05:41:57.190Z,97.00
2018-11-05T05:44:26.010Z,97.00
2018-11-05T05:46:54.844Z,96.80
2018-11-05T05:49:23.745Z,96.70
2018-11-05T05:51:52.592Z,96.70
2018-11-05T05:54:21.508Z,96.50
2018-11-05T05:56:50.348Z,96.50
2018-11-05T05:59:19.262Z,96.40
2018-11-05T06:01:48.155Z,96.50
2018-11-05T06:04:17.066Z,96.60
2018-11-05T06:06:46.006Z,96.50
2018-11-05T06:09:15.183Z,96.50
2018-11-05T06:11:44.040Z,96.50
2018-11-05T06:14:12.917Z,97.10
2018-11-05T06:16:42.534Z,96.60
2018-11-05T06:19:11.377Z,96.60
2018-11-05T06:21:40.336Z,96.60
2018-11-05T06:24:09.163Z,96.70
2018-11-05T06:26:37.996Z,96.70
2018-11-05T06:29:06.974Z,96.90
2018-11-05T06:31:35.827Z,97.00
2018-11-05T06:34:06.311Z,96.90
2018-11-05T06:36:35.183Z,96.70
2018-11-05T06:39:07.606Z,96.60
2018-11-05T06:41:36.576Z,96.60
2018-11-05T06:44:05.708Z,96.70
2018-11-05T06:46:34.739Z,96.70
2018-11-05T06:49:03.661Z,96.80
2018-11-05T06:51:32.828Z,96.60
2018-11-05T06:54:02.345Z,96.50
2018-11-05T06:56:31.216Z,96.50
2018-11-05T06:59:00.217Z,96.90
2018-11-05T07:01:29.830Z,96.90
2018-11-05T07:03:58.710Z,96.70
2018-11-05T07:06:27.818Z,96.60
2018-11-05T07:08:56.704Z,96.90
2018-11-05T07:11:25.616Z,96.70
2018-11-05T07:13:54.495Z,97.10
2018-11-05T07:16:23.329Z,97.00
2018-11-05T07:18:52.391Z,96.80
2018-11-05T07:21:21.145Z,96.70
2018-11-05T07:23:50.035Z,96.50
2018-11-05T07:26:18.854Z,96.60
2018-11-05T07:28:47.723Z,96.60
2018-11-05T07:31:16.577Z,96.60
2018-11-05T07:33:45.541Z,96.40
2018-11-05T07:36:14.274Z,96.40
2018-11-05T07:38:43.171Z,96.50
2018-11-05T07:41:12.046Z,96.40
2018-11-05T07:43:40.916Z,96.30
2018-11-05T07:46:09.846Z,96.30
2018-11-05T07:48:38.687Z,96.40
2018-11-05T07:51:08.151Z,96.20
2018-11-05T07:53:37.026Z,96.10
2018-11-05T07:56:05.980Z,96.20
2018-11-05T07:58:34.777Z,96.50
2018-11-05T08:01:03.713Z,96.00
2018-11-05T08:03:32.566Z,96.00
2018-11-05T08:06:01.565Z,96.00
2018-11-05T08:08:30.601Z,96.00
2018-11-05T08:13:27.952Z,95.70
2018-11-05T08:15:56.838Z,96.70
2018-11-05T08:18:25.778Z,96.90
2018-11-05T08:20:54.679Z,96.60
2018-11-05T08:23:23.541Z,96.60
2018-11-05T08:25:52.424Z,96.50
2018-11-05T08:28:21.300Z,96.30
2018-11-05T08:30:50.208Z,96.10
2018-11-05T08:33:19.083Z,96.00
2018-11-05T08:35:48.223Z,96.00
2018-11-05T08:38:17.124Z,96.10
2018-11-05T08:40:45.972Z,95.90
2018-11-05T08:43:14.863Z,95.70
2018-11-05T08:45:43.723Z,95.60
2018-11-05T08:48:12.625Z,96.00
2018-11-05T08:50:41.715Z,95.80
2018-11-05T08:53:10.473Z,95.80
2018-11-05T08:55:39.322Z,96.00
2018-11-05T08:58:08.160Z,95.80
2018-11-05T09:00:42.397Z,95.70
2018-11-05T09:03:12.338Z,95.70
2018-11-05T09:05:41.262Z,96.00
2018-11-05T09:08:10.105Z,95.90
2018-11-05T09:10:39.206Z,95.60
2018-11-05T09:13:07.903Z,95.70
2018-11-05T09:15:36.748Z,96.20
2018-11-05T09:18:05.653Z,95.80
2018-11-05T09:20:34.507Z,96.00
2018-11-05T09:23:03.328Z,96.00
2018-11-05T09:25:32.218Z,96.00
2018-11-05T09:28:01.163Z,95.90
2018-11-05T09:30:30.082Z,95.80
2018-11-05T09:32:58.971Z,95.80
2018-11-05T09:35:27.928Z,95.60
2018-11-05T09:37:57.842Z,95.40
2018-11-05T09:40:26.733Z,95.80
2018-11-05T09:42:55.663Z,95.70
2018-11-05T09:45:25.935Z,95.50
2018-11-05T09:47:54.779Z,96.00
2018-11-05T09:50:23.717Z,95.90
2018-11-05T09:52:52.565Z,96.10
2018-11-05T09:55:21.443Z,95.70
2018-11-05T09:57:51.314Z,95.70
2018-11-05T10:00:22.432Z,95.50
2018-11-05T10:03:27.383Z,95.40
2018-11-05T10:05:56.068Z,95.70
2018-11-05T10:08:24.917Z,95.20
2018-11-05T10:10:53.818Z,95.20
2018-11-05T10:13:22.624Z,95.10
2018-11-05T10:15:51.500Z,95.10
2018-11-05T10:18:20.365Z,94.80
2018-11-05T10:20:49.307Z,95.40
2018-11-05T10:23:18.218Z,95.20
2018-11-05T10:25:47.092Z,94.40
2018-11-05T10:28:15.976Z,94.70
2018-11-05T10:30:44.929Z,94.60
2018-11-05T10:33:13.780Z,94.80
2018-11-05T10:35:48.082Z,94.60
2018-11-05T10:38:16.942Z,94.90
2018-11-05T10:40:45.842Z,95.10
2018-11-05T10:43:14.807Z,95.20
2018-11-05T10:45:43.698Z,95.00
2018-11-05T10:48:12.829Z,94.60
2018-11-05T10:50:41.757Z,94.40
2018-11-05T10:53:10.577Z,94.00
2018-11-05T10:55:39.442Z,94.30
2018-11-05T10:58:08.346Z,94.00
2018-11-05T11:00:42.494Z,94.00
2018-11-05T11:03:16.840Z,94.10
2018-11-05T11:05:45.726Z,94.30
2018-11-05T11:08:14.570Z,94.30
2018-11-05T11:10:43.467Z,94.10
2018-11-05T11:13:12.309Z,93.90
2018-11-05T11:15:41.171Z,93.70
2018-11-05T11:18:11.081Z,93.90
2018-11-05T11:20:40.007Z,94.30
2018-11-05T11:23:09.975Z,94.30
2018-11-05T11:25:38.877Z,94.50
2018-11-05T11:28:07.752Z,94.40
2018-11-05T11:30:36.653Z,94.10
2018-11-05T11:33:07.544Z,94.20
2018-11-05T11:35:36.460Z,94.30
2018-11-05T11:38:06.730Z,94.40
2018-11-05T11:40:35.564Z,94.20
2018-11-05T11:43:04.497Z,94.10
2018-11-05T11:45:33.360Z,93.90
2018-11-05T11:48:02.251Z,94.10
2018-11-05T11:50:31.136Z,94.30
2018-11-05T11:53:00.085Z,94.00
2018-11-05T11:55:28.933Z,93.90
2018-11-05T11:57:57.835Z,94.20
2018-11-05T12:00:26.652Z,94.50
2018-11-05T12:02:55.641Z,94.60
2018-11-05T12:05:24.649Z,94.50
2018-11-05T12:07:54.388Z,94.60
2018-11-05T12:10:24.224Z,94.50
2018-11-05T12:12:53.097Z,94.20
2018-11-05T12:15:22.729Z,94.10
2018-11-05T12:17:52.559Z,94.00
2018-11-05T12:20:22.692Z,93.40
2018-11-05T12:22:52.063Z,93.20
2018-11-05T12:25:20.979Z,93.20
2018-11-05T12:27:49.847Z,93.00
2018-11-05T12:30:21.071Z,93.20
2018-11-05T12:32:50.929Z,94.00
2018-11-05T12:35:21.024Z,94.30
2018-11-05T12:37:51.031Z,94.30
2018-11-05T12:40:20.949Z,94.20
2018-11-05T12:42:50.576Z,94.00
2018-11-05T12:45:19.468Z,93.80
2018-11-05T12:47:48.347Z,94.40
2018-11-05T15:46:54.347Z,93.60
2018-11-05T15:49:23.210Z,95.50
2018-11-05T15:51:52.434Z,95.70
2018-11-05T15:54:21.070Z,95.60
2018-11-05T15:56:49.697Z,95.70
2018-11-05T15:59:18.532Z,95.90
2018-11-05T16:01:47.421Z,95.70
2018-11-05T16:04:16.292Z,95.70
2018-11-05T16:06:45.341Z,95.70
2018-11-05T16:09:14.412Z,96.00
2018-11-05T16:11:43.218Z,96.20
2018-11-05T16:14:12.090Z,96.30
2018-11-05T16:16:40.948Z,96.50
2018-11-05T16:19:09.844Z,96.60
2018-11-05T16:46:23.779Z,96.70
2018-11-05T16:48:52.618Z,96.90
2018-11-05T16:51:21.551Z,96.80
2018-11-05T16:53:50.500Z,96.70
2018-11-05T16:56:19.394Z,96.70
2018-11-05T16:58:48.459Z,96.60
2018-11-05T17:01:17.594Z,96.70
2018-11-05T17:03:46.193Z,96.80
2018-11-05T17:06:15.177Z,97.00
2018-11-05T17:08:44.017Z,97.00
2018-11-05T17:11:12.908Z,97.00
2018-11-05T17:13:42.173Z,97.00
2018-11-05T17:16:10.921Z,96.90
2018-11-05T17:18:39.787Z,96.80
2018-11-05T17:21:08.649Z,96.80
2018-11-05T17:23:37.545Z,96.70
2018-11-05T17:26:06.486Z,96.60
2018-11-05T17:28:35.249Z,96.70
2018-11-05T17:31:04.634Z,96.70
2018-11-05T17:33:33.495Z,97.10
2018-11-05T17:36:02.351Z,96.70
2018-11-05T17:38:31.181Z,96.80
2018-11-05T17:41:00.086Z,97.10
2018-11-05T17:43:28.968Z,97.20
2018-11-05T17:45:57.845Z,97.10
2018-11-05T17:48:26.708Z,97.80
2018-11-05T17:50:55.688Z,97.80
2018-11-05T17:53:24.510Z,98.00
2018-11-05T17:55:53.405Z,98.60
2018-11-05T17:58:22.249Z,99.00
2018-11-05T18:00:51.393Z,99.10
2018-11-05T18:03:20.642Z,99.50
2018-11-05T18:05:49.608Z,99.60
2018-11-05T18:08:18.536Z,99.70
2018-11-05T18:10:47.399Z,99.70
2018-11-05T18:13:16.261Z,99.80
2018-11-05T18:15:45.163Z,99.60
2018-11-05T18:18:13.940Z,99.90
2018-11-05T18:20:42.797Z,99.80
2018-11-05T18:23:11.736Z,99.50
2018-11-05T18:25:40.718Z,99.30
2018-11-05T18:28:09.625Z,99.00
2018-11-05T18:30:38.540Z,99.10
2018-11-05T18:33:07.405Z,99.30
2018-11-05T18:35:36.312Z,99.10
2018-11-05T18:38:05.430Z,99.00
2018-11-05T18:40:34.358Z,99.10
2018-11-05T18:43:03.292Z,99.20
2018-11-05T18:45:32.243Z,98.90
2018-11-05T18:48:01.045Z,98.80
2018-11-05T18:50:29.936Z,98.80
2018-11-05T18:52:58.855Z,98.90
2018-11-05T18:55:27.735Z,98.80
2018-11-05T18:57:56.596Z,99.00
2018-11-05T19:00:26.760Z,99.10
2018-11-05T19:02:56.809Z,98.60
2018-11-05T19:05:26.941Z,99.20
2018-11-05T19:07:55.806Z,99.70
2018-11-05T19:10:24.692Z,99.90
2018-11-05T19:12:54.068Z,99.90
2018-11-05T19:15:22.936Z,99.90
2018-11-05T19:17:51.978Z,99.90
2018-11-05T19:20:20.824Z,99.90
2018-11-05T19:22:49.843Z,99.90
2018-11-05T19:25:18.788Z,99.90
2018-11-05T19:27:47.657Z,99.90
2018-11-05T19:30:18.978Z,99.90
2018-11-05T19:32:47.812Z,99.90
2018-11-05T19:35:16.797Z,99.90
2018-11-05T19:37:45.769Z,99.90
2018-11-05T19:40:15.497Z,99.90
2018-11-05T19:42:45.463Z,99.90
2018-11-05T19:45:15.951Z,99.90
2018-11-05T19:47:45.164Z,99.90
2018-11-05T19:50:22.490Z,99.90
2018-11-05T19:52:52.336Z,99.90
2018-11-05T19:55:21.425Z,99.90
2018-11-05T19:57:52.398Z,99.90
2018-11-05T20:00:28.637Z,99.90
2018-11-05T20:02:58.737Z,99.90
2018-11-05T20:05:27.739Z,99.90
2018-11-05T20:07:57.372Z,99.90
2018-11-05T20:10:26.235Z,99.90
2018-11-05T20:12:55.210Z,99.90
2018-11-05T20:15:24.221Z,99.90
2018-11-05T20:17:53.938Z,99.90
2018-11-05T20:20:23.753Z,99.90
2018-11-05T20:22:52.707Z,99.90
2018-11-05T20:25:21.732Z,99.90
2018-11-05T20:27:50.636Z,99.90
2018-11-05T20:30:20.841Z,99.90
2018-11-05T20:32:50.931Z,99.90
2018-11-05T20:35:19.624Z,99.90
2018-11-05T20:37:48.679Z,99.90
2018-11-05T20:40:22.198Z,99.90
2018-11-05T20:42:52.067Z,99.90
2018-11-05T20:45:21.850Z,99.90
2018-11-05T20:47:50.739Z,99.90
2018-11-05T20:50:19.642Z,99.90
2018-11-05T20:52:48.534Z,99.90
2018-11-05T20:55:18.040Z,99.90
2018-11-05T20:57:47.049Z,99.90
2018-11-05T21:00:18.686Z,99.90
2018-11-05T21:02:47.612Z,99.90
2018-11-05T21:05:16.697Z,99.90
2018-11-05T21:07:45.547Z,99.90
2018-11-05T21:10:15.069Z,99.90
2018-11-05T21:12:44.402Z,99.90
2018-11-05T21:15:14.594Z,99.90
2018-11-05T21:17:44.241Z,99.90
2018-11-05T21:20:13.502Z,99.90
2018-11-05T21:22:42.615Z,99.90
2018-11-05T21:25:11.415Z,99.90
2018-11-05T21:27:41.059Z,99.90
2018-11-05T21:30:11.829Z,99.90
2018-11-05T21:32:40.733Z,99.90
2018-11-05T21:35:11.673Z,99.90
2018-11-05T21:37:40.860Z,99.90
2018-11-05T21:40:10.862Z,99.90
2018-11-05T21:42:39.761Z,99.90
2018-11-05T21:45:10.299Z,99.90
2018-11-05T21:47:39.681Z,99.90
2018-11-05T21:50:11.246Z,99.90
2018-11-05T21:52:41.292Z,99.90
2018-11-05T21:55:10.380Z,99.90
2018-11-05T21:57:40.985Z,99.90
2018-11-05T22:00:12.130Z,99.90
2018-11-05T22:02:46.228Z,99.90
2018-11-05T22:05:15.553Z,99.90
2018-11-05T22:07:44.652Z,99.90
2018-11-05T22:10:13.946Z,99.90
2018-11-05T22:12:43.547Z,99.90
2018-11-05T22:15:12.554Z,99.90
2018-11-05T22:17:41.659Z,99.90
2018-11-05T22:20:11.177Z,99.90
2018-11-05T22:22:40.319Z,99.90
2018-11-05T22:25:09.739Z,99.90
2018-11-05T22:27:38.792Z,99.90
2018-11-05T22:30:09.144Z,99.90
2018-11-05T22:32:38.717Z,99.90
2018-11-05T22:35:07.725Z,99.90
2018-11-05T22:37:36.971Z,99.90
2018-11-05T22:40:09.848Z,99.90
2018-11-05T22:42:38.720Z,99.90
2018-11-05T22:45:08.194Z,99.90
2018-11-05T22:47:37.490Z,99.90
2018-11-05T22:50:06.900Z,99.90
2018-11-05T22:52:35.772Z,99.90
2018-11-05T22:55:05.348Z,99.90
2018-11-05T22:57:34.361Z,99.90
2018-11-05T23:00:03.355Z,99.90
2018-11-05T23:02:32.253Z,99.90
2018-11-05T23:05:01.561Z,99.90
2018-11-05T23:07:30.412Z,99.90
2018-11-05T23:09:59.256Z,99.90
2018-11-05T23:22:28.100Z,99.90
2018-11-05T23:24:57.008Z,99.90
2018-11-05T23:27:25.937Z,99.90
